createdAt,value
2018-03-07T00:01:02.022Z,965.46
2018-03-07T00:02:08.886Z,965.30
2018-03-07T00:03:15.708Z,965.35
2018-03-07T00:04:22.442Z,965.36
2018-03-07T00:05:29.174Z,965.35
2018-03-07T00:06:36.063Z,965.39
2018-03-07T00:07:42.817Z,965.49
2018-03-07T00:08:49.607Z,965.47
2018-03-07T00:09:56.426Z,965.42
2018-03-07T00:11:03.206Z,965.49
2018-03-07T00:12:09.997Z,965.48
2018-03-07T00:13:16.837Z,965.53
2018-03-07T00:14:23.716Z,965.57
2018-03-07T00:15:30.425Z,965.55
2018-03-07T00:16:37.256Z,965.54
2018-03-07T00:17:43.999Z,965.58
2018-03-07T00:18:50.857Z,965.59
2018-03-07T00:19:57.670Z,965.63
2018-03-07T00:21:04.452Z,965.54
2018-03-07T00:22:11.171Z,965.51
2018-03-07T00:23:18.093Z,965.64
2018-03-07T00:24:24.840Z,965.64
2018-03-07T00:25:31.621Z,965.56
2018-03-07T00:26:38.506Z,965.57
2018-03-07T00:27:45.266Z,965.53
2018-03-07T00:28:51.996Z,965.65
2018-03-07T00:29:58.734Z,965.64
2018-03-07T00:31:05.565Z,965.64
2018-03-07T00:32:12.308Z,965.57
2018-03-07T00:33:19.084Z,965.64
2018-03-07T00:34:25.829Z,965.63
2018-03-07T00:35:32.590Z,965.66
2018-03-07T00:36:39.385Z,965.71
2018-03-07T00:37:46.117Z,965.63
2018-03-07T00:38:52.880Z,965.66
2018-03-07T00:39:59.702Z,965.69
2018-03-07T00:41:06.485Z,965.67
2018-03-07T00:42:13.224Z,965.73
2018-03-07T00:43:20.053Z,965.67
2018-03-07T00:44:26.793Z,965.70
2018-03-07T00:45:33.597Z,965.73
2018-03-07T00:46:40.369Z,965.68
2018-03-07T00:47:47.117Z,965.66
2018-03-07T00:48:53.864Z,965.69
2018-03-07T00:50:00.648Z,965.70
2018-03-07T00:51:07.533Z,965.64
2018-03-07T00:52:14.284Z,965.63
2018-03-07T00:53:21.032Z,965.59
2018-03-07T00:54:27.793Z,965.60
2018-03-07T00:55:34.596Z,965.55
2018-03-07T00:56:41.328Z,965.58
2018-03-07T00:57:48.084Z,965.57
2018-03-07T00:58:54.825Z,965.50
2018-03-07T01:00:01.682Z,965.50
2018-03-07T01:01:08.521Z,965.52
2018-03-07T01:02:15.264Z,965.48
2018-03-07T01:03:22.161Z,965.48
2018-03-07T01:04:28.924Z,965.53
2018-03-07T01:05:35.673Z,965.51
2018-03-07T01:06:42.536Z,965.50
2018-03-07T01:07:49.288Z,965.57
2018-03-07T01:08:56.020Z,965.51
2018-03-07T01:10:02.772Z,965.58
2018-03-07T01:11:09.580Z,965.51
2018-03-07T01:12:16.338Z,965.48
2018-03-07T01:13:23.104Z,965.49
2018-03-07T01:14:29.863Z,965.43
2018-03-07T01:15:36.657Z,965.38
2018-03-07T01:16:43.432Z,965.36
2018-03-07T01:17:50.190Z,965.36
2018-03-07T01:18:56.959Z,965.40
2018-03-07T01:20:04.005Z,965.45
2018-03-07T01:21:10.773Z,965.42
2018-03-07T01:22:17.517Z,965.38
2018-03-07T01:23:24.527Z,965.42
2018-03-07T01:24:31.304Z,965.46
2018-03-07T01:25:38.084Z,965.40
2018-03-07T01:26:45.098Z,965.45
2018-03-07T01:27:51.869Z,965.39
2018-03-07T01:28:58.629Z,965.45
2018-03-07T01:30:05.380Z,965.48
2018-03-07T01:31:12.185Z,965.39
2018-03-07T01:32:18.949Z,965.42
2018-03-07T01:33:25.724Z,965.47
2018-03-07T01:34:32.461Z,965.49
2018-03-07T01:35:39.266Z,965.48
2018-03-07T01:36:46.036Z,965.46
2018-03-07T01:37:52.773Z,965.48
2018-03-07T01:38:59.519Z,965.39
2018-03-07T01:40:06.377Z,965.41
2018-03-07T01:41:13.518Z,965.35
2018-03-07T01:42:20.272Z,965.27
2018-03-07T01:43:27.036Z,965.30
2018-03-07T01:44:33.799Z,965.37
2018-03-07T01:45:40.580Z,965.34
2018-03-07T01:46:47.357Z,965.25
2018-03-07T01:47:54.134Z,965.22
2018-03-07T01:49:01.011Z,965.19
2018-03-07T01:50:07.825Z,965.26
2018-03-07T01:51:14.632Z,965.20
2018-03-07T01:52:21.445Z,965.23
2018-03-07T01:53:28.201Z,965.20
2018-03-07T01:54:34.942Z,965.20
2018-03-07T01:55:41.689Z,965.29
2018-03-07T01:56:48.542Z,965.22
2018-03-07T01:57:55.318Z,965.23
2018-03-07T01:59:02.098Z,965.20
2018-03-07T02:00:08.937Z,965.23
2018-03-07T02:01:15.693Z,965.17
2018-03-07T02:02:22.452Z,965.14
2018-03-07T02:03:29.196Z,965.23
2018-03-07T02:04:35.968Z,965.21
2018-03-07T02:05:43.116Z,965.18
2018-03-07T02:06:49.882Z,965.19
2018-03-07T02:07:56.634Z,965.19
2018-03-07T02:09:03.484Z,965.12
2018-03-07T02:11:17.342Z,965.06
2018-03-07T02:12:24.085Z,965.12
2018-03-07T02:13:30.845Z,965.12
2018-03-07T02:14:37.572Z,965.06
2018-03-07T02:15:44.386Z,965.04
2018-03-07T02:16:51.185Z,965.12
2018-03-07T02:17:57.941Z,965.10
2018-03-07T02:19:04.801Z,965.13
2018-03-07T02:20:11.544Z,965.12
2018-03-07T02:21:18.304Z,965.08
2018-03-07T02:22:25.062Z,965.06
2018-03-07T02:23:31.885Z,965.05
2018-03-07T02:24:38.648Z,965.00
2018-03-07T02:25:45.449Z,964.98
2018-03-07T02:26:52.427Z,964.99
2018-03-07T02:27:59.157Z,965.04
2018-03-07T02:29:05.925Z,964.98
2018-03-07T02:30:12.746Z,964.94
2018-03-07T02:31:19.561Z,964.93
2018-03-07T02:32:26.410Z,964.95
2018-03-07T02:33:33.198Z,964.89
2018-03-07T02:34:39.962Z,964.91
2018-03-07T02:35:46.977Z,964.95
2018-03-07T02:36:53.744Z,964.98
2018-03-07T02:38:00.515Z,965.04
2018-03-07T02:39:07.254Z,964.99
2018-03-07T02:40:14.054Z,965.01
2018-03-07T02:41:20.816Z,965.01
2018-03-07T02:42:27.626Z,965.00
2018-03-07T02:43:34.490Z,964.85
2018-03-07T02:44:41.242Z,964.88
2018-03-07T02:45:48.023Z,964.95
2018-03-07T02:46:54.780Z,964.91
2018-03-07T02:48:01.682Z,964.88
2018-03-07T02:49:08.450Z,964.90
2018-03-07T02:50:15.205Z,964.86
2018-03-07T02:51:22.032Z,964.92
2018-03-07T02:52:28.817Z,964.84
2018-03-07T02:53:35.577Z,964.79
2018-03-07T02:54:42.320Z,964.85
2018-03-07T02:55:49.114Z,964.84
2018-03-07T02:56:55.897Z,964.81
2018-03-07T02:58:02.683Z,964.87
2018-03-07T02:59:09.425Z,964.82
2018-03-07T03:00:16.231Z,964.84
2018-03-07T03:01:23.020Z,964.90
2018-03-07T03:02:29.794Z,964.89
2018-03-07T03:03:36.546Z,964.88
2018-03-07T03:04:43.318Z,964.96
2018-03-07T03:05:50.075Z,964.85
2018-03-07T03:06:56.878Z,964.91
2018-03-07T03:08:03.740Z,964.85
2018-03-07T03:09:10.460Z,964.88
2018-03-07T03:10:17.219Z,964.93
2018-03-07T03:11:23.977Z,964.99
2018-03-07T03:12:30.870Z,964.91
2018-03-07T03:13:37.620Z,964.98
2018-03-07T03:14:44.371Z,964.98
2018-03-07T03:15:51.124Z,965.02
2018-03-07T03:16:57.926Z,965.00
2018-03-07T03:18:04.671Z,964.95
2018-03-07T03:19:11.445Z,964.88
2018-03-07T03:20:18.180Z,964.88
2018-03-07T03:21:24.968Z,964.92
2018-03-07T03:22:31.784Z,964.89
2018-03-07T03:23:38.534Z,964.89
2018-03-07T03:24:45.387Z,964.89
2018-03-07T03:25:52.106Z,964.82
2018-03-07T03:26:58.803Z,964.86
2018-03-07T03:28:05.519Z,964.88
2018-03-07T03:29:12.204Z,964.87
2018-03-07T03:30:18.893Z,964.90
2018-03-07T03:31:25.580Z,964.92
2018-03-07T03:32:32.392Z,964.89
2018-03-07T03:33:39.115Z,964.95
2018-03-07T03:34:45.813Z,964.92
2018-03-07T03:35:52.521Z,964.90
2018-03-07T03:36:59.284Z,964.99
2018-03-07T03:38:06.032Z,964.94
2018-03-07T03:39:12.705Z,964.88
2018-03-07T03:40:19.372Z,964.88
2018-03-07T03:41:26.071Z,964.84
2018-03-07T03:42:32.757Z,964.94
2018-03-07T03:43:39.557Z,964.93
2018-03-07T03:44:46.425Z,964.97
2018-03-07T03:45:53.101Z,964.91
2018-03-07T03:46:59.831Z,964.91
2018-03-07T03:48:06.503Z,964.91
2018-03-07T03:49:13.189Z,964.93
2018-03-07T03:50:19.856Z,964.92
2018-03-07T03:51:26.620Z,964.85
2018-03-07T03:52:33.329Z,964.81
2018-03-07T03:53:40.058Z,964.89
2018-03-07T03:54:46.776Z,964.82
2018-03-07T03:55:53.448Z,964.82
2018-03-07T03:57:00.140Z,964.84
2018-03-07T03:58:06.820Z,964.81
2018-03-07T03:59:13.570Z,964.87
2018-03-07T04:00:20.737Z,964.88
2018-03-07T04:01:27.696Z,964.88
2018-03-07T04:02:34.503Z,964.89
2018-03-07T04:03:41.216Z,964.97
2018-03-07T04:04:48.317Z,964.94
2018-03-07T04:05:55.012Z,964.86
2018-03-07T04:07:01.716Z,964.87
2018-03-07T04:08:08.421Z,964.94
2018-03-07T04:09:15.092Z,964.99
2018-03-07T04:10:22.266Z,964.94
2018-03-07T04:11:29.066Z,965.02
2018-03-07T04:12:35.770Z,964.92
2018-03-07T04:13:42.447Z,964.90
2018-03-07T04:14:49.151Z,964.90
2018-03-07T04:15:56.324Z,964.97
2018-03-07T04:17:03.011Z,964.96
2018-03-07T04:18:10.014Z,964.89
2018-03-07T04:19:16.831Z,964.82
2018-03-07T04:20:23.592Z,964.88
2018-03-07T04:21:30.277Z,964.85
2018-03-07T04:22:37.004Z,964.93
2018-03-07T04:23:43.668Z,964.93
2018-03-07T04:24:50.377Z,964.96
2018-03-07T04:25:57.201Z,965.01
2018-03-07T04:27:03.901Z,964.97
2018-03-07T04:28:10.638Z,965.03
2018-03-07T04:29:17.357Z,965.04
2018-03-07T04:30:24.052Z,965.03
2018-03-07T04:31:30.796Z,965.02
2018-03-07T04:32:37.485Z,965.03
2018-03-07T04:33:44.219Z,965.06
2018-03-07T04:34:50.936Z,965.05
2018-03-07T04:35:57.637Z,965.06
2018-03-07T04:37:04.347Z,965.03
2018-03-07T04:38:11.092Z,965.02
2018-03-07T04:39:17.770Z,965.04
2018-03-07T04:40:24.484Z,965.12
2018-03-07T04:41:31.183Z,965.06
2018-03-07T04:42:37.918Z,965.12
2018-03-07T04:43:44.621Z,965.08
2018-03-07T04:44:51.394Z,965.12
2018-03-07T04:45:58.097Z,965.14
2018-03-07T04:47:04.872Z,965.07
2018-03-07T04:48:11.663Z,965.06
2018-03-07T04:49:18.408Z,965.05
2018-03-07T04:50:25.094Z,965.09
2018-03-07T04:51:32.281Z,965.09
2018-03-07T04:52:38.984Z,965.11
2018-03-07T04:53:45.704Z,965.14
2018-03-07T04:54:52.437Z,965.13
2018-03-07T04:55:59.208Z,965.10
2018-03-07T04:57:05.912Z,965.17
2018-03-07T04:58:12.709Z,965.08
2018-03-07T04:59:19.421Z,965.18
2018-03-07T05:00:26.240Z,965.17
2018-03-07T05:01:32.909Z,965.16
2018-03-07T05:02:39.710Z,965.16
2018-03-07T05:03:46.385Z,965.20
2018-03-07T05:04:53.256Z,965.15
2018-03-07T05:05:59.941Z,965.17
2018-03-07T05:07:06.644Z,965.25
2018-03-07T05:08:13.440Z,965.25
2018-03-07T05:09:20.168Z,965.16
2018-03-07T05:10:26.905Z,965.17
2018-03-07T05:11:33.597Z,965.19
2018-03-07T05:12:40.321Z,965.18
2018-03-07T05:13:47.056Z,965.15
2018-03-07T05:14:53.973Z,965.22
2018-03-07T05:16:00.652Z,965.20
2018-03-07T05:17:07.381Z,965.16
2018-03-07T05:18:14.153Z,965.15
2018-03-07T05:19:20.866Z,965.14
2018-03-07T05:20:27.584Z,965.12
2018-03-07T05:21:34.288Z,965.17
2018-03-07T05:22:41.029Z,965.15
2018-03-07T05:23:47.741Z,965.17
2018-03-07T05:24:54.449Z,965.09
2018-03-07T05:26:01.228Z,965.21
2018-03-07T05:27:07.927Z,965.19
2018-03-07T05:28:14.635Z,965.09
2018-03-07T05:29:21.329Z,965.22
2018-03-07T05:30:28.045Z,965.12
2018-03-07T05:31:35.199Z,965.14
2018-03-07T05:32:42.388Z,965.17
2018-03-07T05:33:49.463Z,965.18
2018-03-07T05:34:56.128Z,965.17
2018-03-07T05:36:02.908Z,965.17
2018-03-07T05:37:09.597Z,965.17
2018-03-07T05:38:16.287Z,965.15
2018-03-07T05:39:22.960Z,965.17
2018-03-07T05:40:29.703Z,965.21
2018-03-07T05:41:36.861Z,965.19
2018-03-07T05:42:43.567Z,965.17
2018-03-07T05:43:50.285Z,965.26
2018-03-07T05:44:56.972Z,965.20
2018-03-07T05:46:03.677Z,965.21
2018-03-07T05:47:10.386Z,965.22
2018-03-07T05:48:17.117Z,965.24
2018-03-07T05:49:23.788Z,965.24
2018-03-07T05:50:30.928Z,965.30
2018-03-07T05:51:38.100Z,965.31
2018-03-07T05:52:44.876Z,965.31
2018-03-07T05:53:51.613Z,965.26
2018-03-07T05:54:58.301Z,965.29
2018-03-07T05:56:05.008Z,965.31
2018-03-07T05:57:11.672Z,965.39
2018-03-07T05:58:18.371Z,965.27
2018-03-07T05:59:25.166Z,965.34
2018-03-07T06:00:31.858Z,965.33
2018-03-07T06:01:38.556Z,965.37
2018-03-07T06:02:45.229Z,965.34
2018-03-07T06:03:52.000Z,965.42
2018-03-07T06:04:58.748Z,965.36
2018-03-07T06:06:05.926Z,965.42
2018-03-07T06:07:12.595Z,965.39
2018-03-07T06:08:19.330Z,965.42
2018-03-07T06:09:26.041Z,965.41
2018-03-07T06:10:32.946Z,965.50
2018-03-07T06:11:39.473Z,965.45
2018-03-07T06:12:46.148Z,965.45
2018-03-07T06:13:52.850Z,965.45
2018-03-07T06:14:59.550Z,965.55
2018-03-07T06:16:06.232Z,965.50
2018-03-07T06:17:12.985Z,965.49
2018-03-07T06:18:19.652Z,965.57
2018-03-07T06:19:26.428Z,965.62
2018-03-07T06:20:33.109Z,965.52
2018-03-07T06:21:39.781Z,965.63
2018-03-07T06:22:46.466Z,965.55
2018-03-07T06:23:53.205Z,965.55
2018-03-07T06:24:59.879Z,965.64
2018-03-07T06:26:06.596Z,965.57
2018-03-07T06:27:13.313Z,965.64
2018-03-07T06:28:19.971Z,965.51
2018-03-07T06:29:27.120Z,965.53
2018-03-07T06:30:34.290Z,965.64
2018-03-07T06:31:40.954Z,965.62
2018-03-07T06:32:47.652Z,965.60
2018-03-07T06:33:54.358Z,965.61
2018-03-07T06:35:01.053Z,965.62
2018-03-07T06:36:07.776Z,965.55
2018-03-07T06:37:14.488Z,965.56
2018-03-07T06:38:21.158Z,965.60
2018-03-07T06:39:27.898Z,965.56
2018-03-07T06:40:35.070Z,965.66
2018-03-07T06:41:41.776Z,965.60
2018-03-07T06:42:48.465Z,965.67
2018-03-07T06:43:55.148Z,965.59
2018-03-07T06:45:01.816Z,965.70
2018-03-07T06:46:08.652Z,965.61
2018-03-07T06:47:15.353Z,965.67
2018-03-07T06:48:22.049Z,965.72
2018-03-07T06:49:28.732Z,965.70
2018-03-07T06:50:35.418Z,965.69
2018-03-07T06:51:42.120Z,965.70
2018-03-07T06:51:59.981Z,965.73
2018-03-07T06:53:07.159Z,965.69
2018-03-07T06:54:13.808Z,965.69
2018-03-07T06:55:20.959Z,965.74
2018-03-07T06:56:27.683Z,965.78
2018-03-07T06:57:34.372Z,965.72
2018-03-07T06:58:41.154Z,965.77
2018-03-07T06:59:47.792Z,965.69
2018-03-07T07:00:54.486Z,965.78
2018-03-07T07:02:01.218Z,965.77
2018-03-07T07:03:07.894Z,965.72
2018-03-07T07:04:15.079Z,965.76
2018-03-07T07:05:21.782Z,965.80
2018-03-07T07:06:28.539Z,965.76
2018-03-07T07:07:35.278Z,965.77
2018-03-07T07:08:41.973Z,965.76
2018-03-07T07:09:48.713Z,965.81
2018-03-07T07:10:55.348Z,965.87
2018-03-07T07:12:02.513Z,965.93
2018-03-07T07:13:09.220Z,965.82
2018-03-07T07:14:15.970Z,965.93
2018-03-07T07:15:22.653Z,965.93
2018-03-07T07:16:29.337Z,965.92
2018-03-07T07:17:36.037Z,965.90
2018-03-07T07:18:42.739Z,965.88
2018-03-07T07:19:49.429Z,965.94
2018-03-07T07:20:56.104Z,965.96
2018-03-07T07:22:02.787Z,965.94
2018-03-07T07:23:09.541Z,965.93
2018-03-07T07:24:16.224Z,965.94
2018-03-07T07:25:22.895Z,966.00
2018-03-07T07:26:29.628Z,966.02
2018-03-07T07:27:36.403Z,966.00
2018-03-07T07:28:43.106Z,966.03
2018-03-07T07:29:49.840Z,966.03
2018-03-07T07:30:56.547Z,966.05
2018-03-07T07:32:03.261Z,966.03
2018-03-07T07:33:10.052Z,966.03
2018-03-07T07:34:16.769Z,966.10
2018-03-07T07:35:23.508Z,966.07
2018-03-07T07:36:30.184Z,966.12
2018-03-07T07:37:36.904Z,966.06
2018-03-07T07:38:43.660Z,966.05
2018-03-07T07:39:50.365Z,966.13
2018-03-07T07:40:57.054Z,966.13
2018-03-07T07:42:03.844Z,966.09
2018-03-07T07:43:10.614Z,966.14
2018-03-07T07:44:17.377Z,966.15
2018-03-07T07:45:24.079Z,966.12
2018-03-07T07:46:30.879Z,966.09
2018-03-07T07:47:37.587Z,966.11
2018-03-07T07:48:44.287Z,966.19
2018-03-07T07:49:51.077Z,966.12
2018-03-07T07:50:57.881Z,966.17
2018-03-07T07:52:04.578Z,966.26
2018-03-07T07:53:11.310Z,966.21
2018-03-07T07:54:18.017Z,966.21
2018-03-07T07:55:24.756Z,966.15
2018-03-07T07:56:31.507Z,966.15
2018-03-07T07:57:38.234Z,966.29
2018-03-07T07:58:44.937Z,966.24
2018-03-07T07:59:51.662Z,966.26
2018-03-07T08:00:58.397Z,966.28
2018-03-07T08:02:05.109Z,966.23
2018-03-07T08:03:11.824Z,966.22
2018-03-07T08:04:18.556Z,966.24
2018-03-07T08:05:25.297Z,966.28
2018-03-07T08:06:32.102Z,966.29
2018-03-07T08:07:38.798Z,966.26
2018-03-07T08:08:45.518Z,966.37
2018-03-07T08:09:52.571Z,966.24
2018-03-07T08:10:59.380Z,966.26
2018-03-07T08:12:06.118Z,966.27
2018-03-07T08:13:12.764Z,966.30
2018-03-07T08:14:19.560Z,966.29
2018-03-07T08:15:26.228Z,966.31
2018-03-07T08:16:32.974Z,966.28
2018-03-07T08:17:39.685Z,966.34
2018-03-07T08:18:46.384Z,966.34
2018-03-07T08:19:53.081Z,966.34
2018-03-07T08:20:59.924Z,966.31
2018-03-07T08:22:06.642Z,966.33
2018-03-07T08:23:13.361Z,966.31
2018-03-07T08:24:20.100Z,966.31
2018-03-07T08:25:26.831Z,966.34
2018-03-07T08:26:33.589Z,966.39
2018-03-07T08:27:40.304Z,966.40
2018-03-07T08:28:47.017Z,966.39
2018-03-07T08:29:53.749Z,966.47
2018-03-07T08:31:00.442Z,966.41
2018-03-07T08:32:07.261Z,966.35
2018-03-07T08:33:14.052Z,966.43
2018-03-07T08:34:20.765Z,966.41
2018-03-07T08:35:27.488Z,966.44
2018-03-07T08:36:34.460Z,966.46
2018-03-07T08:37:41.343Z,966.46
2018-03-07T08:38:48.121Z,966.52
2018-03-07T08:39:54.833Z,966.47
2018-03-07T08:41:01.577Z,966.52
2018-03-07T08:42:08.321Z,966.51
2018-03-07T08:43:15.146Z,966.51
2018-03-07T08:44:21.847Z,966.55
2018-03-07T08:45:28.561Z,966.51
2018-03-07T08:46:35.354Z,966.53
2018-03-07T08:47:42.083Z,966.49
2018-03-07T08:48:48.805Z,966.58
2018-03-07T08:49:55.628Z,966.53
2018-03-07T08:51:02.412Z,966.48
2018-03-07T08:52:09.297Z,966.48
2018-03-07T08:53:16.231Z,966.44
2018-03-07T08:54:23.237Z,966.49
2018-03-07T08:55:29.970Z,966.49
2018-03-07T08:56:36.940Z,966.55
2018-03-07T08:57:43.612Z,966.62
2018-03-07T08:58:50.412Z,966.53
2018-03-07T08:59:57.310Z,966.53
2018-03-07T09:01:04.492Z,966.55
2018-03-07T09:02:10.980Z,966.55
2018-03-07T09:03:17.605Z,966.51
2018-03-07T09:04:24.297Z,966.58
2018-03-07T09:05:31.060Z,966.62
2018-03-07T09:06:37.767Z,966.55
2018-03-07T09:08:51.217Z,966.68
2018-03-07T09:09:57.968Z,966.65
2018-03-07T09:11:04.700Z,966.59
2018-03-07T09:12:11.408Z,966.63
2018-03-07T09:13:18.241Z,966.72
2018-03-07T09:14:25.010Z,966.64
2018-03-07T09:15:31.764Z,966.68
2018-03-07T09:16:38.476Z,966.68
2018-03-07T09:17:45.507Z,966.67
2018-03-07T09:18:52.273Z,966.68
2018-03-07T09:19:59.046Z,966.73
2018-03-07T09:21:05.736Z,966.72
2018-03-07T09:22:12.614Z,966.71
2018-03-07T09:23:19.453Z,966.71
2018-03-07T09:24:26.204Z,966.70
2018-03-07T09:25:32.912Z,966.72
2018-03-07T09:26:39.640Z,966.62
2018-03-07T09:27:46.621Z,966.74
2018-03-07T09:28:53.386Z,966.71
2018-03-07T09:30:00.124Z,966.74
2018-03-07T09:31:06.962Z,966.75
2018-03-07T09:32:13.695Z,966.67
2018-03-07T09:33:20.418Z,966.81
2018-03-07T09:34:27.140Z,966.73
2018-03-07T09:35:33.981Z,966.72
2018-03-07T09:36:40.681Z,966.72
2018-03-07T09:37:47.381Z,966.77
2018-03-07T09:38:54.094Z,966.73
2018-03-07T09:40:00.853Z,966.77
2018-03-07T09:41:07.661Z,966.79
2018-03-07T09:42:14.452Z,966.72
2018-03-07T09:43:21.242Z,966.80
2018-03-07T09:44:28.041Z,966.74
2018-03-07T09:45:35.087Z,966.79
2018-03-07T09:46:42.081Z,966.76
2018-03-07T09:47:49.011Z,966.80
2018-03-07T09:48:55.858Z,966.78
2018-03-07T09:50:02.799Z,966.80
2018-03-07T09:51:09.869Z,966.85
2018-03-07T09:52:16.741Z,966.82
2018-03-07T09:53:23.561Z,966.79
2018-03-07T09:54:30.716Z,966.92
2018-03-07T09:55:37.423Z,966.83
2018-03-07T09:56:44.160Z,966.90
2018-03-07T09:57:50.869Z,966.86
2018-03-07T09:58:57.889Z,966.90
2018-03-07T10:00:04.624Z,966.81
2018-03-07T10:01:11.469Z,966.91
2018-03-07T10:02:18.873Z,966.84
2018-03-07T10:03:25.581Z,966.85
2018-03-07T10:04:32.416Z,966.89
2018-03-07T10:05:39.225Z,966.84
2018-03-07T10:06:45.942Z,966.91
2018-03-07T10:07:52.742Z,966.99
2018-03-07T10:08:59.480Z,966.87
2018-03-07T10:10:06.276Z,966.92
2018-03-07T10:11:13.138Z,966.95
2018-03-07T10:12:20.375Z,966.95
2018-03-07T10:13:26.960Z,966.97
2018-03-07T10:14:33.685Z,966.94
2018-03-07T10:15:40.400Z,966.96
2018-03-07T10:16:47.112Z,966.92
2018-03-07T10:17:53.888Z,966.97
2018-03-07T10:19:00.606Z,966.95
2018-03-07T10:20:07.316Z,966.93
2018-03-07T10:21:14.114Z,966.99
2018-03-07T10:22:21.256Z,967.02
2018-03-07T10:23:28.076Z,966.98
2018-03-07T10:24:34.784Z,967.05
2018-03-07T10:25:41.589Z,967.08
2018-03-07T10:26:48.429Z,967.04
2018-03-07T10:27:55.166Z,967.02
2018-03-07T10:29:01.918Z,967.06
2018-03-07T10:30:08.872Z,967.09
2018-03-07T10:31:15.779Z,967.16
2018-03-07T10:32:22.640Z,967.11
2018-03-07T10:33:29.592Z,967.11
2018-03-07T10:34:36.545Z,967.09
2018-03-07T10:35:43.300Z,967.15
2018-03-07T10:36:50.320Z,967.09
2018-03-07T10:37:57.095Z,967.15
2018-03-07T10:39:03.853Z,967.18
2018-03-07T10:40:10.592Z,967.13
2018-03-07T10:41:17.384Z,967.20
2018-03-07T10:42:24.240Z,967.26
2018-03-07T10:43:30.987Z,967.25
2018-03-07T10:44:37.755Z,967.24
2018-03-07T10:45:44.600Z,967.22
2018-03-07T10:46:51.360Z,967.29
2018-03-07T10:47:58.127Z,967.34
2018-03-07T10:49:05.112Z,967.36
2018-03-07T10:50:11.853Z,967.33
2018-03-07T10:51:18.615Z,967.28
2018-03-07T10:52:25.788Z,967.35
2018-03-07T10:53:32.545Z,967.37
2018-03-07T10:54:39.311Z,967.36
2018-03-07T10:55:46.084Z,967.38
2018-03-07T10:56:52.813Z,967.39
2018-03-07T10:57:59.556Z,967.35
2018-03-07T10:59:06.324Z,967.34
2018-03-07T11:00:13.037Z,967.39
2018-03-07T11:01:20.203Z,967.36
2018-03-07T11:02:26.924Z,967.35
2018-03-07T11:03:38.764Z,967.39
2018-03-07T11:04:45.465Z,967.40
2018-03-07T11:05:47.295Z,967.36
2018-03-07T11:06:54.070Z,967.49
2018-03-07T11:08:00.944Z,967.49
2018-03-07T11:09:07.820Z,967.47
2018-03-07T11:10:14.714Z,967.48
2018-03-07T11:11:21.544Z,967.43
2018-03-07T11:12:28.364Z,967.45
2018-03-07T11:13:35.292Z,967.43
2018-03-07T11:14:42.056Z,967.47
2018-03-07T11:15:48.776Z,967.48
2018-03-07T11:16:55.677Z,967.53
2018-03-07T11:18:02.432Z,967.49
2018-03-07T11:19:09.244Z,967.51
2018-03-07T11:20:16.063Z,967.49
2018-03-07T11:21:22.773Z,967.52
2018-03-07T11:22:29.564Z,967.52
2018-03-07T11:23:36.264Z,967.49
2018-03-07T11:24:43.066Z,967.53
2018-03-07T11:25:49.823Z,967.50
2018-03-07T11:26:56.577Z,967.56
2018-03-07T11:28:03.321Z,967.52
2018-03-07T11:29:10.062Z,967.58
2018-03-07T11:30:16.809Z,967.61
2018-03-07T11:31:23.546Z,967.65
2018-03-07T11:32:30.264Z,967.62
2018-03-07T11:33:37.056Z,967.63
2018-03-07T11:34:43.772Z,967.58
2018-03-07T11:35:50.536Z,967.60
2018-03-07T11:36:57.255Z,967.63
2018-03-07T11:38:05.621Z,967.59
2018-03-07T11:39:10.857Z,967.49
2018-03-07T11:40:17.601Z,967.67
2018-03-07T11:41:24.380Z,967.63
2018-03-07T11:42:31.129Z,967.62
2018-03-07T11:43:37.848Z,967.59
2018-03-07T11:44:44.661Z,967.70
2018-03-07T11:45:51.380Z,967.70
2018-03-07T11:46:58.136Z,967.70
2018-03-07T11:48:04.915Z,967.62
2018-03-07T11:49:11.637Z,967.64
2018-03-07T11:50:18.349Z,967.55
2018-03-07T11:51:25.136Z,967.64
2018-03-07T11:52:31.884Z,967.59
2018-03-07T11:53:38.643Z,967.71
2018-03-07T11:54:45.347Z,967.73
2018-03-07T11:55:52.120Z,967.69
2018-03-07T11:56:58.865Z,967.71
2018-03-07T11:58:05.609Z,967.61
2018-03-07T11:59:12.348Z,967.63
2018-03-07T12:00:19.144Z,967.61
2018-03-07T12:01:25.877Z,967.67
2018-03-07T12:02:32.964Z,967.65
2018-03-07T12:03:39.722Z,967.58
2018-03-07T12:04:46.549Z,967.60
2018-03-07T12:05:53.300Z,967.57
2018-03-07T12:07:00.033Z,967.67
2018-03-07T12:08:06.851Z,967.59
2018-03-07T12:09:13.687Z,967.58
2018-03-07T12:10:20.453Z,967.59
2018-03-07T12:11:27.456Z,967.57
2018-03-07T12:12:34.232Z,967.61
2018-03-07T12:13:41.061Z,967.56
2018-03-07T12:14:47.824Z,967.62
2018-03-07T12:15:54.554Z,967.57
2018-03-07T12:17:01.331Z,967.60
2018-03-07T12:18:08.106Z,967.62
2018-03-07T12:19:14.831Z,967.58
2018-03-07T12:20:21.660Z,967.60
2018-03-07T12:21:28.408Z,967.56
2018-03-07T12:22:35.235Z,967.61
2018-03-07T12:23:42.057Z,967.62
2018-03-07T12:24:48.806Z,967.61
2018-03-07T12:25:55.577Z,967.61
2018-03-07T12:27:02.307Z,967.56
2018-03-07T12:28:09.056Z,967.58
2018-03-07T12:29:15.808Z,967.60
2018-03-07T12:30:22.557Z,967.55
2018-03-07T12:31:29.275Z,967.55
2018-03-07T12:32:36.012Z,967.62
2018-03-07T12:33:42.743Z,967.55
2018-03-07T12:34:49.513Z,967.62
2018-03-07T12:35:56.278Z,967.56
2018-03-07T12:37:03.026Z,967.63
2018-03-07T12:38:09.735Z,967.61
2018-03-07T12:39:16.568Z,967.59
2018-03-07T12:40:23.296Z,967.63
2018-03-07T12:41:30.026Z,967.59
2018-03-07T12:42:36.759Z,967.60
2018-03-07T12:43:43.505Z,967.57
2018-03-07T12:44:50.606Z,967.60
2018-03-07T12:45:57.328Z,967.57
2018-03-07T12:47:04.113Z,967.51
2018-03-07T12:48:10.861Z,967.55
2018-03-07T12:49:17.695Z,967.58
2018-03-07T12:50:24.511Z,967.54
2018-03-07T12:51:31.226Z,967.53
2018-03-07T12:52:37.992Z,967.53
2018-03-07T12:53:44.844Z,967.60
2018-03-07T12:54:51.592Z,967.54
2018-03-07T12:55:58.340Z,967.53
2018-03-07T12:57:05.089Z,967.54
2018-03-07T12:58:12.093Z,967.55
2018-03-07T12:59:18.931Z,967.55
2018-03-07T13:00:25.644Z,967.51
2018-03-07T13:01:32.355Z,967.45
2018-03-07T13:02:39.111Z,967.56
2018-03-07T13:03:45.820Z,967.53
2018-03-07T13:04:52.601Z,967.39
2018-03-07T13:05:59.316Z,967.66
2018-03-07T13:07:06.065Z,967.51
2018-03-07T13:08:12.792Z,967.56
2018-03-07T13:09:19.561Z,967.52
2018-03-07T13:10:26.371Z,967.49
2018-03-07T13:11:33.234Z,967.48
2018-03-07T13:12:40.043Z,967.59
2018-03-07T13:13:46.848Z,967.48
2018-03-07T13:14:53.592Z,967.55
2018-03-07T13:16:00.368Z,967.56
2018-03-07T13:17:07.097Z,967.54
2018-03-07T13:18:13.817Z,967.57
2018-03-07T13:19:20.527Z,967.60
2018-03-07T13:20:27.264Z,967.61
2018-03-07T13:21:34.057Z,967.58
2018-03-07T13:22:40.773Z,967.64
2018-03-07T13:23:47.516Z,967.65
2018-03-07T13:24:54.244Z,967.65
2018-03-07T13:26:01.036Z,967.73
2018-03-07T13:27:07.820Z,967.72
2018-03-07T13:28:14.549Z,967.71
2018-03-07T13:29:21.376Z,967.79
2018-03-07T13:30:28.128Z,967.84
2018-03-07T13:31:34.883Z,967.75
2018-03-07T13:32:41.600Z,967.76
2018-03-07T13:33:48.761Z,967.80
2018-03-07T13:34:55.484Z,967.78
2018-03-07T13:36:02.225Z,967.78
2018-03-07T13:37:09.236Z,967.85
2018-03-07T13:38:15.937Z,967.81
2018-03-07T13:39:22.725Z,967.83
2018-03-07T13:40:29.456Z,967.78
2018-03-07T13:41:36.293Z,967.80
2018-03-07T13:42:43.088Z,967.86
2018-03-07T13:43:49.820Z,967.87
2018-03-07T13:44:56.511Z,967.85
2018-03-07T13:46:03.412Z,967.90
2018-03-07T13:47:10.189Z,967.85
2018-03-07T13:48:16.912Z,967.92
2018-03-07T13:49:23.692Z,967.98
2018-03-07T13:50:30.406Z,967.96
2018-03-07T13:51:37.161Z,967.95
2018-03-07T13:52:43.908Z,967.93
2018-03-07T13:53:50.700Z,967.96
2018-03-07T13:54:57.439Z,968.07